Portada
METAR-TAF:

METAR-TAF

Aeropuertos :

Aeropuerto de León

León, España

latitud: 42-35N, longitud: 005-39W, altitud: 926 m

Observación

El informe se hizo hace 20 minutos, a las 16:00 UTC
Viento 5 kt del sureste, variando entre este-sureste y sur
Temperatura 14°C
Humedad 33%
Presión 1022 hPa
Visibilidad 10 km o más
sin nubes por debajo de 1500 m y sin presencia de cumulonimbus.

METAR: LELN 161600Z 14005KT 110V180 CAVOK 14/M02 Q1022

Hora: 17:20 (16:20 UTC)

Pronóstico

El informe se hizo hace 2 horas y 20 minutos, a las 14:00 UTC
Pronóstico válido del 16 a las 15 UTC al 16 a las 24 UTC
Viento 5 kt del sureste
Visibilidad 10 km o más
sin nubes por debajo de 1500 m y sin presencia de cumulonimbus.

TAF: LELN 161400Z 1615/1624 14005KT CAVOK

Observaciones y pronósticos meteorológicos de más de 4000 aeropuertos (mensajes METAR y TAF).

Los puntos amarillos y rojos representan las estaciones disponibles.

Ponga el ratón en el punto deseado para ver el nombre de la estación.

Haga clic para ver las observaciones y los pronósticos meteorológicos.

Para cambiar el mapa : haga clic en los botones verdes con una cruz de color negro para hacer un zoom, en el botón verde con un guión para alejar o en las flechas verdes para mapas adyacentes.


METAR-TAF: